Time;durP1;ratioP1;P1;durP2;ratioP2;P2;SDS_P1;SDS_P2;PMS_P1;PMS_P2;Temp;Humidity;BMP_temperature;BMP_pressure;BME280_temperature;BME280_humidity;BME280_pressure;Samples;Min_cycle;Max_cycle;Signal;HPM_P1;HPM_P2
2023/12/02 00:00:37;;;;;;;32.40;17.50;;;-1.60;99.90;;;;;;5091918;28;20203;-74
2023/12/02 00:03:03;;;;;;;32.53;17.60;;;-1.60;99.90;;;;;;5092343;28;20659;-69
2023/12/02 00:05:30;;;;;;;29.80;17.77;;;-1.60;99.90;;;;;;5092428;28;20242;-70
2023/12/02 00:07:57;;;;;;;35.73;19.77;;;-1.60;99.90;;;;;;5092499;28;20269;-69
2023/12/02 00:10:23;;;;;;;29.53;18.33;;;-1.60;99.90;;;;;;5092332;28;20196;-69
2023/12/02 00:12:50;;;;;;;36.23;19.93;;;-1.60;99.90;;;;;;5092117;28;20606;-70
2023/12/02 00:15:18;;;;;;;32.67;19.67;;;-1.60;99.90;;;;;;5093195;28;20288;-70
2023/12/02 00:17:45;;;;;;;36.13;20.37;;;-1.60;99.90;;;;;;5096140;28;20663;-68
2023/12/02 00:20:12;;;;;;;31.90;18.50;;;-1.60;99.90;;;;;;5096136;28;20196;-69
2023/12/02 00:22:39;;;;;;;32.83;18.27;;;-1.60;99.90;;;;;;5096045;28;20196;-69
2023/12/02 00:25:06;;;;;;;37.27;20.23;;;-1.50;99.90;;;;;;5096007;28;20223;-70
2023/12/02 00:27:32;;;;;;;34.90;20.20;;;-1.50;99.90;;;;;;5095709;28;20717;-69
2023/12/02 00:29:59;;;;;;;33.70;19.53;;;-1.50;99.90;;;;;;5095916;28;20195;-70
2023/12/02 00:32:27;;;;;;;34.20;19.40;;;-1.50;99.90;;;;;;5095682;28;20695;-70
2023/12/02 00:34:54;;;;;;;34.27;19.90;;;-1.60;99.90;;;;;;5095779;28;20196;-69
2023/12/02 00:37:20;;;;;;;35.93;22.00;;;-1.60;99.90;;;;;;5095608;28;20220;-69
2023/12/02 00:39:47;;;;;;;34.63;19.37;;;-1.50;99.90;;;;;;5095498;28;20648;-69
2023/12/02 00:42:13;;;;;;;37.63;21.53;;;-1.50;99.90;;;;;;5095577;28;20200;-70
2023/12/02 00:44:40;;;;;;;33.93;20.77;;;-1.60;99.90;;;;;;5095736;28;20256;-69
2023/12/02 00:47:06;;;;;;;40.37;21.97;;;-1.60;99.90;;;;;;5095648;28;20249;-71
2023/12/02 00:49:34;;;;;;;38.13;20.33;;;-1.60;99.90;;;;;;5095476;28;20202;-69
2023/12/02 00:52:01;;;;;;;38.47;22.50;;;-1.60;99.90;;;;;;5095391;28;20219;-69
2023/12/02 00:54:28;;;;;;;38.63;21.67;;;-1.60;99.90;;;;;;5095249;28;20249;-70
2023/12/02 00:56:54;;;;;;;40.10;23.20;;;-1.60;99.90;;;;;;5095421;28;20197;-69
2023/12/02 00:59:21;;;;;;;37.13;20.80;;;-1.60;99.90;;;;;;5095402;28;20203;-69
2023/12/02 01:01:47;;;;;;;36.80;21.47;;;-1.70;99.90;;;;;;5095140;28;20200;-70
2023/12/02 01:04:14;;;;;;;36.10;21.10;;;-1.60;99.90;;;;;;5095329;28;20250;-70
2023/12/02 01:06:42;;;;;;;34.43;20.10;;;-1.60;99.90;;;;;;5095219;28;20196;-69
2023/12/02 01:09:09;;;;;;;33.97;19.90;;;-1.60;99.90;;;;;;5094850;28;20589;-69
2023/12/02 01:11:35;;;;;;;34.17;19.30;;;-1.60;99.90;;;;;;5095217;28;20268;-69
2023/12/02 01:14:02;;;;;;;34.00;20.87;;;-1.60;99.90;;;;;;5095128;28;20192;-69
2023/12/02 01:16:29;;;;;;;33.60;20.00;;;-1.60;99.90;;;;;;5094732;28;20233;-69
2023/12/02 01:18:55;;;;;;;37.40;21.03;;;-1.60;99.90;;;;;;5094888;28;20228;-69
2023/12/02 01:21:22;;;;;;;33.57;20.40;;;-1.60;99.90;;;;;;5094779;28;20700;-69
2023/12/02 01:23:50;;;;;;;33.63;20.67;;;-1.60;99.90;;;;;;5094731;28;20196;-69
2023/12/02 01:26:17;;;;;;;36.83;20.17;;;-1.60;99.90;;;;;;5094615;28;20277;-70
2023/12/02 01:28:43;;;;;;;35.23;20.60;;;-1.60;99.90;;;;;;5094738;28;20646;-69
2023/12/02 01:31:10;;;;;;;34.30;18.90;;;-1.60;99.90;;;;;;5094725;28;20721;-70
2023/12/02 01:33:36;;;;;;;36.23;19.37;;;-1.60;99.90;;;;;;5094744;28;20200;-69
2023/12/02 01:36:04;;;;;;;32.90;18.73;;;-1.60;99.90;;;;;;5094530;28;20200;-70
2023/12/02 01:38:30;;;;;;;33.10;19.27;;;-1.70;99.90;;;;;;5094427;28;20216;-70
2023/12/02 01:40:58;;;;;;;31.90;19.40;;;-1.60;99.90;;;;;;5094718;28;20200;-70
2023/12/02 01:43:26;;;;;;;34.13;19.37;;;-1.70;99.90;;;;;;5094635;28;20249;-70
2023/12/02 01:45:54;;;;;;;32.87;19.40;;;-1.70;99.90;;;;;;5094532;28;20629;-70
2023/12/02 01:48:22;;;;;;;33.23;19.77;;;-1.70;99.90;;;;;;5094438;28;20198;-70
2023/12/02 01:50:49;;;;;;;32.93;19.33;;;-1.70;99.90;;;;;;5094289;28;20740;-70
2023/12/02 01:53:16;;;;;;;32.87;18.73;;;-1.60;99.90;;;;;;5094446;28;20196;-70
2023/12/02 01:55:44;;;;;;;35.40;20.63;;;-1.70;99.90;;;;;;5094341;28;20253;-68
2023/12/02 01:58:12;;;;;;;34.50;20.00;;;-1.70;99.90;;;;;;5094253;28;20280;-69
2023/12/02 02:00:38;;;;;;;33.87;19.60;;;-1.60;99.90;;;;;;5094057;28;20658;-69
2023/12/02 02:03:05;;;;;;;34.03;20.30;;;-1.70;99.90;;;;;;5094180;28;20253;-69
2023/12/02 02:05:32;;;;;;;35.13;20.43;;;-1.70;99.90;;;;;;5093600;28;20256;-69
2023/12/02 02:07:58;;;;;;;34.20;20.37;;;-1.70;99.90;;;;;;5094175;28;20206;-69
2023/12/02 02:10:25;;;;;;;33.57;20.90;;;-1.70;99.90;;;;;;5094132;28;20269;-69
2023/12/02 02:12:52;;;;;;;37.73;20.47;;;-1.70;99.90;;;;;;5093940;28;20269;-70
2023/12/02 02:15:20;;;;;;;38.47;21.10;;;-1.80;99.90;;;;;;5093776;28;20327;-69
2023/12/02 02:17:46;;;;;;;38.60;21.53;;;-1.80;99.90;;;;;;5093846;28;20305;-70
2023/12/02 02:20:13;;;;;;;34.80;21.13;;;-1.70;99.90;;;;;;5093695;28;20203;-70
2023/12/02 02:22:41;;;;;;;37.20;21.17;;;-1.80;99.90;;;;;;5093704;28;20236;-70
2023/12/02 02:25:08;;;;;;;38.20;22.07;;;-1.70;99.90;;;;;;5093801;28;20233;-70
2023/12/02 02:27:34;;;;;;;37.03;20.80;;;-1.70;99.90;;;;;;5093782;28;20199;-69
2023/12/02 02:30:01;;;;;;;40.30;22.97;;;-1.70;99.90;;;;;;5093586;28;20200;-69
2023/12/02 02:32:28;;;;;;;39.33;22.70;;;-1.80;99.90;;;;;;5093563;28;20207;-69
2023/12/02 02:34:54;;;;;;;40.00;22.57;;;-1.70;99.90;;;;;;5093763;28;20204;-69
2023/12/02 02:37:21;;;;;;;42.03;21.87;;;-1.70;99.90;;;;;;5092958;28;20204;-69
2023/12/02 02:39:49;;;;;;;43.60;23.23;;;-1.80;99.90;;;;;;5093379;28;20629;-69
2023/12/02 02:42:16;;;;;;;40.43;23.33;;;-1.80;99.90;;;;;;5093475;28;20207;-68
2023/12/02 02:44:42;;;;;;;38.23;21.60;;;-1.80;99.90;;;;;;5093357;28;20193;-68
2023/12/02 02:47:09;;;;;;;42.40;22.67;;;-1.80;99.90;;;;;;5093214;28;20663;-68
2023/12/02 02:49:36;;;;;;;41.73;23.17;;;-1.80;99.90;;;;;;5093385;28;20563;-69
2023/12/02 02:52:03;;;;;;;40.97;22.93;;;-1.80;99.90;;;;;;5093152;28;20671;-69
2023/12/02 02:54:29;;;;;;;38.37;21.83;;;-1.90;99.90;;;;;;5093090;28;20651;-69
2023/12/02 02:56:57;;;;;;;40.00;22.83;;;-1.90;99.90;;;;;;5093207;28;20196;-69
2023/12/02 02:59:24;;;;;;;36.07;21.27;;;-1.90;99.90;;;;;;5092980;28;20565;-70
2023/12/02 03:01:50;;;;;;;38.93;21.47;;;-1.90;99.90;;;;;;5092996;28;20200;-69
2023/12/02 03:04:18;;;;;;;39.67;22.03;;;-1.90;99.90;;;;;;5093209;28;20203;-69
2023/12/02 03:06:44;;;;;;;40.63;21.73;;;-1.90;99.90;;;;;;5093140;28;20195;-69
2023/12/02 03:09:13;;;;;;;40.87;21.57;;;-1.90;99.90;;;;;;5092945;28;20197;-69
2023/12/02 03:11:40;;;;;;;38.77;21.13;;;-1.90;99.90;;;;;;5092838;28;20654;-69
2023/12/02 03:14:08;;;;;;;38.07;21.63;;;-2.00;99.90;;;;;;5092745;28;20601;-69
2023/12/02 03:16:35;;;;;;;35.50;20.23;;;-2.00;99.90;;;;;;5092649;28;20232;-69
2023/12/02 03:19:02;;;;;;;36.00;21.63;;;-1.90;99.90;;;;;;5092898;28;20227;-70
2023/12/02 03:21:29;;;;;;;39.03;20.77;;;-1.90;99.90;;;;;;5092928;28;20196;-70
2023/12/02 03:23:55;;;;;;;39.97;21.87;;;-2.00;99.90;;;;;;5092860;28;20200;-70
2023/12/02 03:26:24;;;;;;;39.00;20.40;;;-2.00;99.90;;;;;;5092643;28;20656;-70
2023/12/02 03:28:50;;;;;;;39.70;21.40;;;-1.90;99.90;;;;;;5092605;28;20240;-70
2023/12/02 03:31:18;;;;;;;34.53;20.13;;;-2.00;99.90;;;;;;5092806;28;20292;-69
2023/12/02 03:33:45;;;;;;;35.80;20.13;;;-1.90;99.90;;;;;;5092696;28;20238;-69
2023/12/02 03:36:12;;;;;;;35.13;19.90;;;-2.00;99.90;;;;;;5092538;28;20716;-70
2023/12/02 03:38:40;;;;;;;33.73;19.97;;;-1.90;99.90;;;;;;5092547;28;20220;-69
2023/12/02 03:41:08;;;;;;;37.20;20.63;;;-2.00;99.90;;;;;;5092600;28;20200;-70
2023/12/02 03:43:35;;;;;;;38.70;21.60;;;-2.00;99.90;;;;;;5092501;28;20245;-70
2023/12/02 03:46:02;;;;;;;32.87;19.20;;;-2.00;99.90;;;;;;5092760;28;20203;-70
2023/12/02 03:48:30;;;;;;;33.83;19.57;;;-2.00;99.90;;;;;;5092674;28;20202;-70
2023/12/02 03:50:57;;;;;;;34.30;20.63;;;-2.00;99.90;;;;;;5096717;28;20227;-70
2023/12/02 03:53:25;;;;;;;36.03;20.27;;;-2.00;99.90;;;;;;5096571;28;20200;-68
2023/12/02 03:55:53;;;;;;;35.23;21.30;;;-2.00;99.90;;;;;;5096440;28;20223;-70
2023/12/02 03:58:19;;;;;;;38.63;21.07;;;-2.00;99.90;;;;;;5096384;28;20272;-69
2023/12/02 04:00:46;;;;;;;36.43;20.47;;;-2.00;99.90;;;;;;5096534;28;20282;-69
2023/12/02 04:03:13;;;;;;;37.13;20.17;;;-2.00;99.90;;;;;;5096539;28;20199;-69
2023/12/02 04:05:43;;;;;;;38.00;20.60;;;-2.00;99.90;;;;;;5096321;28;20635;-69
2023/12/02 04:08:10;;;;;;;36.87;20.47;;;-2.10;99.90;;;;;;5096345;28;20203;-70
2023/12/02 04:10:36;;;;;;;34.03;19.07;;;-2.10;99.90;;;;;;5096231;28;20293;-69
2023/12/02 04:13:05;;;;;;;35.23;21.13;;;-2.10;99.90;;;;;;5096447;28;20203;-68
2023/12/02 04:15:32;;;;;;;34.30;19.30;;;-2.10;99.90;;;;;;5096117;28;20237;-69
2023/12/02 04:17:58;;;;;;;33.33;18.97;;;-2.10;99.90;;;;;;5096137;28;20199;-69
2023/12/02 04:20:25;;;;;;;37.07;21.17;;;-2.10;99.90;;;;;;5096026;28;20200;-69
2023/12/02 04:22:53;;;;;;;34.37;19.53;;;-2.10;99.90;;;;;;5095993;28;20257;-69
2023/12/02 04:25:20;;;;;;;35.83;20.43;;;-2.10;99.90;;;;;;5095870;28;20656;-69
2023/12/02 04:27:47;;;;;;;36.17;21.13;;;-2.20;99.90;;;;;;5096259;28;20246;-69
2023/12/02 04:30:13;;;;;;;39.50;20.03;;;-2.20;99.90;;;;;;5096001;28;20198;-69
2023/12/02 04:32:40;;;;;;;36.00;19.90;;;-2.20;99.90;;;;;;5096018;28;20262;-69
2023/12/02 04:35:09;;;;;;;35.83;20.67;;;-2.20;99.90;;;;;;5095838;28;20203;-70
2023/12/02 04:37:35;;;;;;;40.30;21.47;;;-2.20;99.90;;;;;;5095728;28;20271;-69
2023/12/02 04:40:10;;;;;;;35.13;20.33;;;-2.20;99.90;;;;;;5095562;28;20706;-69
2023/12/02 04:42:37;;;;;;;35.03;19.37;;;-2.20;99.90;;;;;;5095834;28;20234;-69
2023/12/02 04:45:05;;;;;;;36.43;20.53;;;-2.20;99.90;;;;;;5095745;28;20259;-69
2023/12/02 04:47:32;;;;;;;36.37;20.40;;;-2.20;99.90;;;;;;5095596;28;20206;-69
2023/12/02 04:49:58;;;;;;;36.33;19.50;;;-2.30;99.90;;;;;;5095511;28;20253;-69
2023/12/02 04:52:25;;;;;;;38.73;20.57;;;-2.30;99.90;;;;;;5096866;28;20257;-69
2023/12/02 04:54:51;;;;;;;35.17;19.87;;;-2.30;99.90;;;;;;5095621;28;20194;-69
2023/12/02 04:57:19;;;;;;;35.50;19.97;;;-2.30;99.90;;;;;;5095362;28;20512;-69
2023/12/02 04:59:46;;;;;;;34.77;21.00;;;-2.30;99.90;;;;;;5095337;28;20231;-69
2023/12/02 05:02:13;;;;;;;38.17;20.40;;;-2.30;99.90;;;;;;5094461;28;20207;-69
2023/12/02 05:04:39;;;;;;;36.57;18.80;;;-2.30;99.90;;;;;;5095208;28;20208;-69
2023/12/02 05:07:06;;;;;;;37.90;20.47;;;-2.30;99.90;;;;;;5095419;28;20203;-69
2023/12/02 05:09:33;;;;;;;37.90;21.17;;;-2.20;99.90;;;;;;5095270;28;20195;-69
2023/12/02 05:11:59;;;;;;;33.57;19.67;;;-2.30;99.90;;;;;;5095138;28;20207;-69
2023/12/02 05:14:27;;;;;;;35.93;19.73;;;-2.30;99.90;;;;;;5095069;28;20599;-69
2023/12/02 05:16:54;;;;;;;34.87;19.27;;;-2.30;99.90;;;;;;5094981;28;20265;-69
2023/12/02 05:19:20;;;;;;;35.43;19.47;;;-2.30;99.90;;;;;;5094879;28;20224;-69
2023/12/02 05:21:47;;;;;;;37.53;20.23;;;-2.30;99.90;;;;;;5095173;28;20207;-69
2023/12/02 05:24:13;;;;;;;36.40;19.97;;;-2.30;99.90;;;;;;5095047;28;20206;-69
2023/12/02 05:26:40;;;;;;;39.67;20.30;;;-2.40;99.90;;;;;;5094755;28;20697;-70
2023/12/02 05:29:07;;;;;;;34.97;19.03;;;-2.40;99.90;;;;;;5094861;28;20200;-69
2023/12/02 05:31:35;;;;;;;34.93;19.77;;;-2.40;99.90;;;;;;5094759;28;20195;-70
2023/12/02 05:34:02;;;;;;;37.43;20.33;;;-2.30;99.90;;;;;;5094748;28;20626;-69
2023/12/02 05:36:29;;;;;;;38.17;20.37;;;-2.30;99.90;;;;;;5094818;28;20203;-70
2023/12/02 05:38:56;;;;;;;33.67;18.83;;;-2.30;99.90;;;;;;5094654;28;20230;-70
2023/12/02 05:41:23;;;;;;;38.33;20.23;;;-2.30;99.90;;;;;;5094684;28;20192;-69
2023/12/02 05:43:49;;;;;;;34.00;20.40;;;-2.30;99.90;;;;;;5094571;28;20593;-70
2023/12/02 05:46:16;;;;;;;34.57;18.30;;;-2.40;99.90;;;;;;5094324;28;20251;-70
2023/12/02 05:48:44;;;;;;;38.97;19.67;;;-2.30;99.90;;;;;;5094683;28;20198;-71
2023/12/02 05:51:13;;;;;;;35.93;19.17;;;-2.30;99.90;;;;;;5094582;28;20194;-69
2023/12/02 05:53:40;;;;;;;35.60;19.33;;;-2.40;99.90;;;;;;5094470;28;20204;-69
2023/12/02 05:56:07;;;;;;;33.87;18.53;;;-2.40;99.90;;;;;;5094398;28;20204;-69
2023/12/02 05:58:35;;;;;;;32.57;19.13;;;-2.40;99.90;;;;;;5094095;28;20222;-71
2023/12/02 06:01:02;;;;;;;35.57;19.93;;;-2.40;99.90;;;;;;5094443;28;20208;-70
2023/12/02 06:03:29;;;;;;;35.80;18.70;;;-2.40;99.90;;;;;;5094378;28;20198;-69
2023/12/02 06:05:56;;;;;;;34.60;18.97;;;-2.40;99.90;;;;;;5093892;28;20249;-70
2023/12/02 06:08:23;;;;;;;38.87;20.80;;;-2.40;99.90;;;;;;5093886;28;20255;-70
2023/12/02 06:10:50;;;;;;;36.03;19.23;;;-2.40;99.90;;;;;;5093892;28;20203;-69
2023/12/02 06:13:16;;;;;;;36.50;19.57;;;-2.40;99.90;;;;;;5093854;28;20708;-70
2023/12/02 06:15:43;;;;;;;36.50;20.30;;;-2.40;99.90;;;;;;5094000;28;20235;-69
2023/12/02 06:18:10;;;;;;;34.63;19.00;;;-2.50;99.90;;;;;;5094010;28;20620;-69
2023/12/02 06:20:36;;;;;;;33.83;17.93;;;-2.50;99.90;;;;;;5093829;28;20224;-70
2023/12/02 06:23:04;;;;;;;35.93;18.77;;;-2.50;99.90;;;;;;5093792;28;20616;-69
2023/12/02 06:25:31;;;;;;;32.67;18.83;;;-2.50;99.90;;;;;;5093835;28;20260;-69
2023/12/02 06:27:57;;;;;;;31.97;18.67;;;-2.50;99.90;;;;;;5093558;28;20200;-69
2023/12/02 06:30:24;;;;;;;35.47;18.67;;;-2.60;99.90;;;;;;5093938;28;20255;-68
2023/12/02 06:32:51;;;;;;;35.80;20.53;;;-2.60;99.90;;;;;;5093733;28;20206;-69
2023/12/02 06:35:18;;;;;;;37.97;19.57;;;-2.50;99.90;;;;;;5093357;28;20713;-69
2023/12/02 06:37:45;;;;;;;33.87;19.13;;;-2.50;99.90;;;;;;5093577;28;20223;-69
2023/12/02 06:40:13;;;;;;;33.80;19.00;;;-2.50;99.90;;;;;;5093323;28;20222;-69
2023/12/02 06:42:40;;;;;;;31.10;17.60;;;-2.60;99.90;;;;;;5093429;28;20207;-69
2023/12/02 06:45:08;;;;;;;30.50;17.30;;;-2.60;99.90;;;;;;5093560;28;20195;-69
2023/12/02 06:47:34;;;;;;;32.07;17.10;;;-2.50;99.90;;;;;;5093277;28;20285;-69
2023/12/02 06:50:01;;;;;;;32.23;18.57;;;-2.60;99.90;;;;;;5093123;28;20716;-69
2023/12/02 06:52:28;;;;;;;31.63;18.43;;;-2.60;99.90;;;;;;5093163;28;20207;-69
2023/12/02 06:54:54;;;;;;;33.17;19.07;;;-2.60;99.90;;;;;;5093182;28;20248;-70
2023/12/02 06:57:22;;;;;;;30.87;18.37;;;-2.50;99.90;;;;;;5093425;28;20236;-69
2023/12/02 06:59:51;;;;;;;30.20;17.67;;;-2.60;99.90;;;;;;5092984;28;20728;-69
2023/12/02 07:02:17;;;;;;;33.67;18.23;;;-2.60;99.90;;;;;;5102556;28;20219;-70
2023/12/02 07:04:45;;;;;;;29.80;17.37;;;-2.60;99.90;;;;;;5113442;28;20259;-69
2023/12/02 07:07:12;;;;;;;31.30;17.80;;;-2.60;99.90;;;;;;5113368;28;20239;-69
2023/12/02 07:09:39;;;;;;;29.53;17.20;;;-2.60;99.90;;;;;;5113327;28;20258;-69
2023/12/02 07:12:06;;;;;;;30.80;17.17;;;-2.60;99.90;;;;;;5113440;28;20209;-70
2023/12/02 07:14:34;;;;;;;31.23;17.30;;;-2.70;99.90;;;;;;5113363;28;20205;-69
2023/12/02 07:17:00;;;;;;;30.73;17.37;;;-2.70;99.90;;;;;;5113108;28;20226;-69
2023/12/02 07:19:27;;;;;;;33.17;18.73;;;-2.70;99.90;;;;;;5112995;28;20745;-69
2023/12/02 07:21:53;;;;;;;32.50;17.93;;;-2.70;99.90;;;;;;5113179;28;20225;-69
2023/12/02 07:24:20;;;;;;;34.00;18.70;;;-2.60;99.90;;;;;;5112520;28;20887;-69
2023/12/02 07:26:48;;;;;;;29.67;16.20;;;-2.60;99.90;;;;;;5113200;28;20232;-69
2023/12/02 07:29:15;;;;;;;30.30;17.03;;;-2.60;99.90;;;;;;5113201;28;20256;-69
2023/12/02 07:31:45;;;;;;;28.47;17.37;;;-2.60;99.90;;;;;;5112845;28;20573;-69
2023/12/02 07:34:11;;;;;;;33.67;17.13;;;-2.60;99.90;;;;;;5113005;28;20213;-68
2023/12/02 07:36:38;;;;;;;30.90;17.20;;;-2.70;99.90;;;;;;5112909;28;20194;-68
2023/12/02 07:39:05;;;;;;;29.43;16.70;;;-2.70;99.90;;;;;;5113075;28;20196;-69
2023/12/02 07:41:32;;;;;;;32.60;17.53;;;-2.70;99.90;;;;;;5113152;28;20240;-68
2023/12/02 07:43:58;;;;;;;30.90;17.73;;;-2.60;99.90;;;;;;5112850;28;20247;-69
2023/12/02 07:46:25;;;;;;;32.53;18.03;;;-2.60;99.90;;;;;;5112766;28;20197;-69
2023/12/02 07:48:53;;;;;;;32.33;18.50;;;-2.60;99.90;;;;;;5112892;28;20200;-69
2023/12/02 07:51:20;;;;;;;30.57;16.97;;;-2.60;99.90;;;;;;5112734;28;20207;-69
2023/12/02 07:53:46;;;;;;;31.73;17.43;;;-2.70;99.90;;;;;;5113111;28;20194;-69
2023/12/02 07:56:13;;;;;;;28.97;16.40;;;-2.70;99.90;;;;;;5112887;28;20197;-69
2023/12/02 07:58:40;;;;;;;29.63;16.50;;;-2.60;99.90;;;;;;5112826;28;20252;-69
2023/12/02 08:01:07;;;;;;;28.43;15.93;;;-2.60;99.90;;;;;;5112731;28;20304;-68
2023/12/02 08:03:33;;;;;;;32.07;16.70;;;-2.60;99.90;;;;;;5112773;28;20199;-69
2023/12/02 08:06:01;;;;;;;28.57;15.03;;;-2.60;99.90;;;;;;5112893;28;20205;-69
2023/12/02 08:08:28;;;;;;;27.63;16.60;;;-2.50;99.90;;;;;;5112882;28;20196;-69
2023/12/02 08:10:55;;;;;;;26.57;16.90;;;-2.50;99.90;;;;;;5112787;28;20324;-70
2023/12/02 08:13:22;;;;;;;28.30;16.60;;;-2.50;99.90;;;;;;5112700;28;20196;-69
2023/12/02 08:15:49;;;;;;;31.87;17.67;;;-2.40;99.90;;;;;;5112467;28;20237;-69
2023/12/02 08:18:18;;;;;;;28.30;16.00;;;-2.40;99.90;;;;;;5112553;28;20206;-69
2023/12/02 08:20:45;;;;;;;27.17;16.53;;;-2.40;99.90;;;;;;5112826;28;20561;-69
2023/12/02 08:23:13;;;;;;;28.83;17.13;;;-2.40;99.90;;;;;;5112698;28;20217;-69
2023/12/02 08:25:39;;;;;;;48.50;29.73;;;-2.40;99.90;;;;;;5112706;28;20533;-69
2023/12/02 08:28:06;;;;;;;26.03;16.20;;;-2.40;99.90;;;;;;5112503;28;20259;-69
2023/12/02 08:30:33;;;;;;;29.43;17.63;;;-2.40;99.90;;;;;;5112562;28;20247;-69
2023/12/02 08:32:59;;;;;;;28.50;16.20;;;-2.40;99.90;;;;;;5112398;28;20195;-69
2023/12/02 08:35:26;;;;;;;25.97;15.30;;;-2.40;99.90;;;;;;5112580;28;20202;-69
2023/12/02 08:37:52;;;;;;;26.00;14.50;;;-2.40;99.90;;;;;;5116202;28;20229;-69
2023/12/02 08:40:20;;;;;;;27.40;15.43;;;-2.40;99.90;;;;;;5116172;28;20234;-69
2023/12/02 08:42:47;;;;;;;23.70;14.10;;;-2.40;99.90;;;;;;5115667;28;20212;-69
2023/12/02 08:45:14;;;;;;;24.40;13.53;;;-2.50;99.90;;;;;;5116080;28;20198;-70
2023/12/02 08:47:40;;;;;;;25.63;14.30;;;-2.50;99.90;;;;;;5115901;28;20206;-69
2023/12/02 08:50:08;;;;;;;25.03;14.77;;;-2.50;99.90;;;;;;5115936;28;20660;-69
2023/12/02 08:52:34;;;;;;;26.00;15.43;;;-2.50;99.90;;;;;;5116010;28;20329;-70
2023/12/02 08:55:01;;;;;;;23.43;13.97;;;-2.40;99.90;;;;;;5115683;28;20601;-68
2023/12/02 08:57:29;;;;;;;25.20;14.90;;;-2.40;99.90;;;;;;5116011;28;20206;-71
2023/12/02 08:59:56;;;;;;;24.77;16.23;;;-2.40;99.90;;;;;;5115890;28;20271;-70
2023/12/02 09:02:23;;;;;;;23.87;14.03;;;-2.40;99.90;;;;;;5115847;28;20210;-70
2023/12/02 09:04:49;;;;;;;22.30;13.90;;;-2.40;99.90;;;;;;5115493;28;20199;-70
2023/12/02 09:07:16;;;;;;;27.27;15.57;;;-2.40;99.90;;;;;;5115749;28;20245;-70
2023/12/02 09:09:43;;;;;;;22.60;13.83;;;-2.40;99.90;;;;;;5115659;28;20207;-70
2023/12/02 09:12:09;;;;;;;22.87;13.37;;;-2.40;99.90;;;;;;5115341;28;20536;-70
2023/12/02 09:14:37;;;;;;;19.20;12.30;;;-2.40;99.90;;;;;;5115287;28;20199;-69
2023/12/02 09:17:05;;;;;;;21.00;12.63;;;-2.40;99.90;;;;;;5112542;28;20234;-70
2023/12/02 09:19:54;;;;;;;22.03;13.40;;;-2.30;99.90;;;;;;5112034;28;20581;-69
2023/12/02 09:22:46;;;;;;;22.53;13.27;;;-2.10;99.90;;;;;;5111517;28;20203;-69
2023/12/02 09:25:29;;;;;;;18.13;12.10;;;-2.00;99.90;;;;;;5112099;28;20204;-83
2023/12/02 09:28:15;;;;;;;19.27;12.20;;;-2.00;99.90;;;;;;5112566;28;20200;-68
2023/12/02 09:30:51;;;;;;;18.13;11.47;;;-2.10;99.90;;;;;;5114802;28;20205;-69
2023/12/02 09:33:17;;;;;;;19.00;12.63;;;-2.10;99.90;;;;;;5115092;28;20199;-69
2023/12/02 09:35:44;;;;;;;18.37;11.87;;;-2.10;99.90;;;;;;5114126;28;20650;-69
2023/12/02 09:38:12;;;;;;;18.57;11.80;;;-2.10;99.90;;;;;;5113385;28;20608;-69
2023/12/02 09:40:52;;;;;;;20.00;11.93;;;-2.10;99.90;;;;;;5115071;28;20276;-69
2023/12/02 09:43:26;;;;;;;18.60;11.93;;;-2.10;99.90;;;;;;5115110;28;20200;-70
2023/12/02 09:46:15;;;;;;;19.60;11.87;;;-2.00;99.90;;;;;;5114841;28;20204;-70
2023/12/02 09:48:49;;;;;;;17.37;10.33;;;-1.90;99.90;;;;;;5111212;28;20204;-70
2023/12/02 09:51:27;;;;;;;16.40;10.67;;;-2.10;99.90;;;;;;5114951;28;20634;-69
2023/12/02 09:54:04;;;;;;;20.80;11.03;;;-1.90;99.90;;;;;;5114920;28;20199;-69
2023/12/02 09:56:39;;;;;;;13.97;9.57;;;-1.90;99.90;;;;;;5114630;28;20587;-69
2023/12/02 09:59:15;;;;;;;16.30;9.97;;;-1.80;99.90;;;;;;5114913;28;20198;-70
2023/12/02 10:01:48;;;;;;;14.37;9.67;;;-1.80;99.90;;;;;;5114829;28;20223;-70
2023/12/02 10:04:27;;;;;;;13.57;9.60;;;-1.90;99.90;;;;;;5114673;28;20744;-70
2023/12/02 10:07:03;;;;;;;17.00;9.83;;;-2.00;99.90;;;;;;5114502;28;20256;-69
2023/12/02 10:09:50;;;;;;;16.00;9.93;;;-2.00;99.90;;;;;;5114722;28;20213;-68
2023/12/02 10:12:33;;;;;;;15.33;9.90;;;-2.10;99.90;;;;;;5114597;28;20199;-69
2023/12/02 10:15:01;;;;;;;14.87;9.63;;;-2.00;99.90;;;;;;5114192;28;20195;-70
2023/12/02 10:17:31;;;;;;;14.87;9.87;;;-2.10;99.90;;;;;;5114590;28;20288;-69
2023/12/02 10:20:08;;;;;;;14.63;9.67;;;-2.00;99.90;;;;;;5114341;28;20220;-70
2023/12/02 10:22:41;;;;;;;14.07;9.43;;;-2.00;99.90;;;;;;5114466;28;20194;-69
2023/12/02 10:25:22;;;;;;;14.87;10.70;;;-1.80;99.90;;;;;;5114217;28;20195;-69
2023/12/02 10:27:50;;;;;;;14.67;9.93;;;-1.70;99.90;;;;;;5114300;28;20195;-69
2023/12/02 10:30:18;;;;;;;15.23;9.80;;;-1.50;99.90;;;;;;5113888;28;20255;-69
2023/12/02 10:32:59;;;;;;;13.77;9.30;;;-1.80;99.90;;;;;;5114374;28;20212;-70
2023/12/02 10:35:31;;;;;;;15.70;10.17;;;-1.80;99.90;;;;;;5111088;28;20704;-69
2023/12/02 10:38:08;;;;;;;17.27;11.00;;;-1.90;99.90;;;;;;5110451;28;20643;-69
2023/12/02 10:40:34;;;;;;;15.20;10.90;;;-1.90;99.90;;;;;;5110250;28;20234;-70
2023/12/02 10:43:08;;;;;;;17.03;10.77;;;-1.90;99.90;;;;;;5110536;28;20199;-70
2023/12/02 10:45:40;;;;;;;21.10;12.87;;;-2.10;99.90;;;;;;5110524;28;20200;-70
2023/12/02 10:48:10;;;;;;;17.70;11.60;;;-2.10;99.90;;;;;;5110311;28;20200;-69
2023/12/02 10:50:39;;;;;;;39.50;18.30;;;-2.20;99.90;;;;;;5110058;28;20207;-69
2023/12/02 10:53:06;;;;;;;17.70;11.93;;;-2.20;99.90;;;;;;5110290;28;20213;-69
2023/12/02 10:55:36;;;;;;;20.63;12.47;;;-2.20;99.90;;;;;;5110416;28;20549;-69
2023/12/02 10:58:05;;;;;;;17.17;11.37;;;-2.30;99.90;;;;;;5109999;28;20203;-69
2023/12/02 11:00:36;;;;;;;17.33;11.43;;;-2.20;99.90;;;;;;5109498;28;20820;-69
2023/12/02 11:03:14;;;;;;;19.47;12.73;;;-2.20;99.90;;;;;;5110016;28;20640;-69
2023/12/02 11:05:46;;;;;;;19.73;11.77;;;-2.20;99.90;;;;;;5110259;28;20245;-69
2023/12/02 11:08:19;;;;;;;17.47;11.13;;;-2.20;99.90;;;;;;5109892;28;20662;-69
2023/12/02 11:10:48;;;;;;;19.13;12.50;;;-2.40;99.90;;;;;;5109864;28;20211;-70
2023/12/02 11:13:19;;;;;;;16.67;11.13;;;-2.40;99.90;;;;;;5109765;28;20210;-70
2023/12/02 11:16:04;;;;;;;21.67;12.33;;;-2.40;99.90;;;;;;5109401;28;20239;-70
2023/12/02 11:18:42;;;;;;;18.20;11.93;;;-2.30;99.90;;;;;;5110612;28;20210;-70
2023/12/02 11:21:20;;;;;;;17.43;11.67;;;-2.30;99.90;;;;;;5112933;28;20708;-70
2023/12/02 11:24:04;;;;;;;19.10;13.47;;;-2.20;99.90;;;;;;5112930;28;20202;-71
2023/12/02 11:26:39;;;;;;;19.03;13.17;;;-2.10;99.90;;;;;;5113547;28;20201;-70
2023/12/02 11:29:15;;;;;;;19.47;13.27;;;-2.10;99.90;;;;;;5113075;28;20199;-70
2023/12/02 11:31:56;;;;;;;15.13;10.87;;;-2.10;99.90;;;;;;5112949;28;20202;-68
2023/12/02 11:34:38;;;;;;;13.80;9.33;;;-2.20;99.90;;;;;;5112899;28;20252;-69
2023/12/02 11:37:12;;;;;;;15.20;9.93;;;-2.30;99.90;;;;;;5113073;28;20194;-69
2023/12/02 11:39:51;;;;;;;15.17;10.13;;;-2.30;99.90;;;;;;5113032;28;20206;-69
2023/12/02 11:42:18;;;;;;;15.93;10.27;;;-2.20;99.90;;;;;;5112776;28;20697;-70
2023/12/02 11:45:01;;;;;;;14.07;9.60;;;-2.20;99.90;;;;;;5112848;28;20677;-71
2023/12/02 11:47:39;;;;;;;18.33;10.80;;;-2.30;99.90;;;;;;5112971;28;20603;-70
2023/12/02 11:50:22;;;;;;;14.23;8.93;;;-2.30;99.90;;;;;;5112928;28;20244;-70
2023/12/02 11:53:03;;;;;;;14.17;9.10;;;-2.40;99.90;;;;;;5112820;28;20245;-70
2023/12/02 11:55:33;;;;;;;11.63;8.30;;;-2.40;99.90;;;;;;5112982;28;20251;-69
2023/12/02 11:58:12;;;;;;;13.73;9.37;;;-2.30;99.90;;;;;;5113043;28;20207;-69
2023/12/02 12:00:51;;;;;;;17.50;11.53;;;-2.30;99.90;;;;;;5112803;28;20223;-69
2023/12/02 12:03:42;;;;;;;19.30;11.17;;;-2.30;99.90;;;;;;5112472;28;20249;-68
2023/12/02 12:06:20;;;;;;;15.57;10.63;;;-2.30;99.90;;;;;;5112797;28;20194;-70
2023/12/02 12:09:01;;;;;;;16.17;10.80;;;-2.30;99.90;;;;;;5112972;28;20202;-71
2023/12/02 12:11:30;;;;;;;16.70;10.77;;;-2.30;99.90;;;;;;5115782;28;20193;-70
2023/12/02 12:13:58;;;;;;;18.50;11.23;;;-2.30;99.90;;;;;;5116480;28;20311;-70
2023/12/02 12:16:25;;;;;;;16.97;11.77;;;-2.30;99.90;;;;;;5116581;28;20711;-70
2023/12/02 12:18:51;;;;;;;18.97;11.70;;;-2.10;99.90;;;;;;5116595;28;20245;-70
2023/12/02 12:21:19;;;;;;;16.30;10.27;;;-2.10;99.90;;;;;;5113360;28;20276;-69
2023/12/02 12:23:47;;;;;;;15.43;10.17;;;-2.20;99.90;;;;;;5113126;28;20226;-69
2023/12/02 12:26:14;;;;;;;14.90;9.70;;;-2.20;99.90;;;;;;5112494;28;20259;-70
2023/12/02 12:28:40;;;;;;;15.03;10.13;;;-2.20;99.90;;;;;;5113297;28;20229;-70
2023/12/02 12:31:09;;;;;;;16.70;10.73;;;-2.30;99.90;;;;;;5112884;28;20550;-70
2023/12/02 12:33:38;;;;;;;15.47;10.50;;;-2.40;99.90;;;;;;5112902;28;20200;-69
2023/12/02 12:36:06;;;;;;;13.77;9.30;;;-2.40;99.90;;;;;;5077003;28;20201;-70